Time;durP1;ratioP1;P1;durP2;ratioP2;P2;SDS_P1;SDS_P2;PMS_P1;PMS_P2;Temp;Humidity;BMP_temperature;BMP_pressure;BME280_temperature;BME280_humidity;BME280_pressure;Samples;Min_cycle;Max_cycle;Signal;HPM_P1;HPM_P2
2021/08/01 00:01:05;;;;;;;13.15;7.82;;;19.80;68.60;;;;;;5037161;28;20131;-91
2021/08/01 00:03:31;;;;;;;15.55;7.72;;;19.70;69.00;;;;;;5040326;28;20159;-91
2021/08/01 00:05:57;;;;;;;11.30;8.20;;;19.70;68.90;;;;;;5059588;28;20021;-89
2021/08/01 00:08:24;;;;;;;14.10;7.95;;;19.70;69.20;;;;;;5048788;28;20027;-89
2021/08/01 00:10:50;;;;;;;11.40;7.68;;;19.70;69.40;;;;;;5041298;28;20032;-90
2021/08/01 00:13:16;;;;;;;10.07;8.23;;;19.70;69.50;;;;;;5061103;28;20121;-89
2021/08/01 00:15:42;;;;;;;14.02;7.70;;;19.70;69.90;;;;;;5044921;28;20461;-89
2021/08/01 00:18:08;;;;;;;12.85;7.85;;;19.70;70.20;;;;;;5055767;28;20025;-91
2021/08/01 00:20:34;;;;;;;12.25;7.25;;;19.60;70.30;;;;;;5057835;28;20128;-90
2021/08/01 00:23:02;;;;;;;15.27;7.45;;;19.60;70.60;;;;;;5041292;28;20021;-88
2021/08/01 00:25:28;;;;;;;9.25;7.13;;;19.60;70.70;;;;;;5063272;28;20492;-89
2021/08/01 00:27:54;;;;;;;13.70;7.95;;;19.50;70.80;;;;;;5067594;28;20113;-91
2021/08/01 00:30:20;;;;;;;14.77;7.82;;;19.50;71.00;;;;;;5056787;28;20492;-88
2021/08/01 00:32:46;;;;;;;13.50;8.48;;;19.50;72.00;;;;;;5055249;28;20386;-91
2021/08/01 00:35:12;;;;;;;10.48;7.78;;;19.40;71.50;;;;;;5055885;28;20021;-91
2021/08/01 00:37:38;;;;;;;14.18;8.25;;;19.40;71.50;;;;;;5055811;28;20029;-90
2021/08/01 00:40:06;;;;;;;16.77;8.02;;;19.40;71.50;;;;;;5055852;28;20096;-91
2021/08/01 00:42:33;;;;;;;9.60;7.53;;;19.40;71.70;;;;;;5029345;28;20073;-90
2021/08/01 00:44:59;;;;;;;12.70;8.50;;;19.40;71.60;;;;;;5052031;28;20405;-90
2021/08/01 00:47:24;;;;;;;15.88;8.90;;;19.30;71.60;;;;;;5056108;28;20116;-91
2021/08/01 00:49:50;;;;;;;18.70;8.65;;;19.30;71.70;;;;;;5037510;28;20029;-90
2021/08/01 00:52:16;;;;;;;10.57;8.20;;;19.30;71.70;;;;;;5055653;28;20462;-89
2021/08/01 00:54:42;;;;;;;13.93;7.43;;;19.30;71.80;;;;;;5054835;28;20117;-90
2021/08/01 00:57:08;;;;;;;16.33;9.55;;;19.30;71.90;;;;;;5056419;28;20037;-91
2021/08/01 00:59:35;;;;;;;10.45;7.85;;;19.30;71.90;;;;;;5063843;28;20025;-89
2021/08/01 01:02:20;;;;;;;7.97;6.88;;;19.30;72.00;;;;;;5048376;28;20087;-87
2021/08/01 01:05:02;;;;;;;10.23;7.25;;;19.30;71.80;;;;;;5028379;28;20034;-92
2021/08/01 01:07:41;;;;;;;11.13;7.10;;;19.30;71.90;;;;;;5036942;28;20039;-91
2021/08/01 01:10:33;;;;;;;11.40;7.47;;;19.20;72.00;;;;;;5055782;28;20478;-90
2021/08/01 01:13:15;;;;;;;14.85;8.00;;;19.20;72.90;;;;;;5030640;28;20036;-90
2021/08/01 01:15:47;;;;;;;14.48;7.72;;;19.20;72.30;;;;;;5059023;28;20088;-92
2021/08/01 01:18:18;;;;;;;14.93;8.10;;;19.20;72.10;;;;;;5063142;28;20005;-88
2021/08/01 01:21:22;;;;;;;13.52;8.00;;;19.20;72.30;;;;;;5060513;28;20029;-87
2021/08/01 01:23:55;;;;;;;15.13;8.27;;;19.20;72.10;;;;;;5066496;28;20072;-90
2021/08/01 01:27:05;;;;;;;14.75;7.65;;;19.20;72.20;;;;;;5061051;28;20045;-90
2021/08/01 01:29:37;;;;;;;14.77;8.10;;;19.20;72.10;;;;;;4996762;28;20053;-90
2021/08/01 01:32:07;;;;;;;11.63;7.20;;;19.20;71.90;;;;;;4995123;28;20038;-92
2021/08/01 01:34:43;;;;;;;11.25;7.53;;;19.20;72.00;;;;;;4995408;28;20117;-92
2021/08/01 01:37:11;;;;;;;11.15;6.75;;;19.20;71.80;;;;;;4992613;28;20041;-91
2021/08/01 01:39:39;;;;;;;10.60;8.00;;;19.20;71.80;;;;;;5013070;28;20027;-89
2021/08/01 01:42:09;;;;;;;10.98;7.82;;;19.20;71.70;;;;;;4982170;28;20031;-90
2021/08/01 01:44:37;;;;;;;10.05;6.80;;;19.20;71.90;;;;;;4976988;28;20471;-89
2021/08/01 01:47:03;;;;;;;13.80;7.50;;;19.20;71.80;;;;;;4999518;28;20019;-90
2021/08/01 01:49:30;;;;;;;9.70;6.83;;;19.20;71.70;;;;;;5000699;28;20435;-89
2021/08/01 01:51:57;;;;;;;7.47;6.73;;;19.30;71.90;;;;;;4984546;28;20045;-89
2021/08/01 01:54:24;;;;;;;11.70;7.47;;;19.30;72.30;;;;;;4997665;28;20038;-89
2021/08/01 01:56:51;;;;;;;11.50;7.20;;;19.20;71.80;;;;;;4990054;28;20026;-90
2021/08/01 01:59:17;;;;;;;10.63;7.13;;;19.20;71.90;;;;;;5010694;28;20026;-89
2021/08/01 02:01:43;;;;;;;10.45;7.25;;;19.30;72.10;;;;;;5003161;28;20046;-90
2021/08/01 02:04:09;;;;;;;12.48;6.82;;;19.30;72.20;;;;;;5058391;28;20068;-89
2021/08/01 02:06:35;;;;;;;13.43;7.25;;;19.30;72.40;;;;;;5058928;28;20013;-90
2021/08/01 02:09:08;;;;;;;13.63;7.28;;;19.40;72.20;;;;;;5045414;28;20047;-90
2021/08/01 02:11:46;;;;;;;11.18;7.13;;;19.30;72.20;;;;;;5058307;28;20122;-89
2021/08/01 02:14:26;;;;;;;13.27;7.70;;;19.40;71.80;;;;;;5045485;28;20125;-91
2021/08/01 02:17:02;;;;;;;14.75;7.68;;;19.40;72.10;;;;;;5058238;28;20055;-90
2021/08/01 02:19:32;;;;;;;13.52;7.57;;;19.50;72.20;;;;;;5059961;28;20039;-90
2021/08/01 02:21:58;;;;;;;10.00;7.10;;;19.50;71.90;;;;;;5069324;28;20033;-89
2021/08/01 02:24:24;;;;;;;8.63;7.10;;;19.50;71.60;;;;;;5069601;28;20028;-91
2021/08/01 02:26:50;;;;;;;13.68;7.60;;;19.50;71.50;;;;;;5059997;28;20024;-91
2021/08/01 02:29:17;;;;;;;11.82;7.38;;;19.60;71.30;;;;;;5057816;28;20028;-89
2021/08/01 02:31:43;;;;;;;12.52;7.00;;;19.70;71.10;;;;;;5056962;28;20025;-90
2021/08/01 02:34:10;;;;;;;13.38;7.10;;;19.70;71.10;;;;;;5039684;28;20056;-89
2021/08/01 02:36:38;;;;;;;13.48;6.78;;;19.70;70.80;;;;;;5058154;28;20028;-91
2021/08/01 02:39:04;;;;;;;7.72;6.63;;;19.80;70.90;;;;;;5058481;28;20032;-90
2021/08/01 02:41:43;;;;;;;9.00;6.43;;;19.90;70.90;;;;;;5057947;28;20091;-91
2021/08/01 02:44:17;;;;;;;11.80;6.82;;;20.00;70.90;;;;;;5057591;28;20031;-90
2021/08/01 02:46:44;;;;;;;13.82;6.93;;;20.10;69.80;;;;;;5057341;28;20505;-90
2021/08/01 02:49:32;;;;;;;11.23;6.82;;;20.20;69.20;;;;;;5056807;28;20021;-89
2021/08/01 02:52:01;;;;;;;10.52;6.78;;;20.30;69.20;;;;;;5057871;28;20382;-90
2021/08/01 02:54:27;;;;;;;15.73;7.57;;;20.30;68.90;;;;;;5058539;28;20029;-90
2021/08/01 02:57:05;;;;;;;17.38;6.95;;;20.40;69.00;;;;;;5050247;28;20021;-90
2021/08/01 02:59:33;;;;;;;10.18;6.90;;;20.50;68.50;;;;;;5088229;28;20031;-92
2021/08/01 03:02:01;;;;;;;11.75;7.18;;;20.50;68.40;;;;;;5065300;28;20040;-91
2021/08/01 03:04:27;;;;;;;14.63;7.35;;;20.60;68.30;;;;;;5059328;28;20025;-90
2021/08/01 03:06:54;;;;;;;13.38;6.75;;;20.70;68.10;;;;;;5065507;28;20027;-88
2021/08/01 03:09:20;;;;;;;10.02;7.20;;;20.70;67.70;;;;;;5052322;28;20032;-89
2021/08/01 03:11:46;;;;;;;9.48;6.55;;;20.70;67.80;;;;;;5062721;28;20025;-89
2021/08/01 03:14:13;;;;;;;10.55;6.93;;;20.80;67.20;;;;;;5045970;28;20068;-89
2021/08/01 03:16:39;;;;;;;11.15;6.30;;;20.90;67.10;;;;;;5060342;28;20045;-88
2021/08/01 03:19:05;;;;;;;8.90;7.13;;;20.90;66.90;;;;;;5057199;28;20025;-90
2021/08/01 03:21:31;;;;;;;9.00;7.07;;;20.90;66.60;;;;;;5040209;28;20048;-90
2021/08/01 03:23:57;;;;;;;11.25;6.70;;;21.00;66.20;;;;;;5071524;28;20028;-90
2021/08/01 03:26:23;;;;;;;8.32;6.22;;;21.10;66.30;;;;;;5071028;28;20414;-90
2021/08/01 03:28:49;;;;;;;11.45;6.90;;;21.00;66.20;;;;;;5042332;28;20048;-91
2021/08/01 03:31:14;;;;;;;14.18;6.63;;;21.20;66.20;;;;;;5059598;28;20033;-90
2021/08/01 03:33:40;;;;;;;12.35;6.55;;;21.30;66.00;;;;;;5059548;28;20017;-91
2021/08/01 03:36:06;;;;;;;8.48;6.53;;;21.40;65.60;;;;;;5059805;28;20051;-90
2021/08/01 03:38:32;;;;;;;9.88;6.88;;;21.50;65.30;;;;;;5060624;28;20021;-91
2021/08/01 03:40:58;;;;;;;14.35;6.78;;;21.50;65.00;;;;;;5055381;28;20036;-90
2021/08/01 03:43:24;;;;;;;13.63;6.75;;;21.60;64.60;;;;;;5078444;28;20005;-90
2021/08/01 03:45:50;;;;;;;10.02;6.10;;;21.50;64.70;;;;;;5076562;28;20474;-89
2021/08/01 03:48:16;;;;;;;11.55;6.63;;;21.60;64.80;;;;;;5043448;28;20120;-90
2021/08/01 03:50:41;;;;;;;9.82;6.43;;;21.60;64.70;;;;;;5062130;28;20387;-88
2021/08/01 03:53:07;;;;;;;9.35;6.95;;;21.60;65.00;;;;;;5061179;28;20501;-89
2021/08/01 03:55:34;;;;;;;9.50;6.35;;;21.70;65.20;;;;;;5058909;28;20021;-91
2021/08/01 03:58:00;;;;;;;13.53;6.60;;;21.70;64.80;;;;;;5059591;28;20021;-90
2021/08/01 04:00:26;;;;;;;10.82;6.88;;;21.80;64.00;;;;;;5041040;28;20035;-91
2021/08/01 04:02:51;;;;;;;12.38;6.78;;;21.90;64.20;;;;;;5065845;28;20029;-90
2021/08/01 04:05:17;;;;;;;9.93;6.63;;;22.00;63.20;;;;;;5052667;28;20021;-89
2021/08/01 04:07:43;;;;;;;16.05;7.00;;;22.20;62.80;;;;;;5064565;28;20088;-90
2021/08/01 04:10:09;;;;;;;14.77;6.47;;;22.30;62.50;;;;;;5042033;28;20471;-90
2021/08/01 04:12:37;;;;;;;9.57;6.50;;;22.30;61.80;;;;;;5062571;28;20028;-90
2021/08/01 04:15:03;;;;;;;11.93;6.60;;;22.40;61.60;;;;;;5059500;28;20040;-91
2021/08/01 04:17:32;;;;;;;8.80;6.27;;;22.50;61.90;;;;;;5063809;28;20005;-90
2021/08/01 04:19:58;;;;;;;11.35;6.53;;;22.70;61.30;;;;;;5058670;28;20353;-90
2021/08/01 04:22:25;;;;;;;15.43;6.68;;;22.70;60.90;;;;;;5064501;28;20033;-91
2021/08/01 04:24:52;;;;;;;17.27;6.05;;;22.90;60.50;;;;;;5065274;28;20549;-90
2021/08/01 04:27:18;;;;;;;11.50;5.60;;;22.90;60.00;;;;;;5061726;28;20422;-91
2021/08/01 04:29:44;;;;;;;9.02;6.03;;;23.00;59.90;;;;;;5059521;28;20024;-91
2021/08/01 04:32:09;;;;;;;10.02;6.03;;;23.20;59.80;;;;;;5066222;28;20051;-91
2021/08/01 04:34:35;;;;;;;13.20;6.43;;;23.30;59.50;;;;;;5041261;28;20029;-91
2021/08/01 04:37:01;;;;;;;12.18;5.95;;;23.30;59.00;;;;;;5051780;28;20025;-91
2021/08/01 04:39:27;;;;;;;12.63;5.97;;;23.30;59.20;;;;;;5040160;28;20033;-89
2021/08/01 04:41:53;;;;;;;9.00;5.82;;;23.40;59.00;;;;;;5034102;28;20033;-93
2021/08/01 04:44:19;;;;;;;7.65;4.80;;;23.60;59.00;;;;;;5054880;28;20094;-88
2021/08/01 04:46:45;;;;;;;12.85;6.50;;;23.70;57.90;;;;;;5056240;28;20047;-92
2021/08/01 04:49:11;;;;;;;9.80;6.03;;;23.80;57.80;;;;;;5038150;28;20462;-91
2021/08/01 04:51:36;;;;;;;11.23;5.28;;;23.90;57.40;;;;;;5039374;28;20024;-92
2021/08/01 04:54:02;;;;;;;11.60;6.22;;;23.80;56.70;;;;;;5038496;28;20068;-91
2021/08/01 04:56:28;;;;;;;13.82;5.60;;;23.70;56.90;;;;;;5061363;28;20029;-88
2021/08/01 04:58:54;;;;;;;11.38;5.63;;;23.60;57.50;;;;;;5039364;28;20029;-91
2021/08/01 05:01:20;;;;;;;11.82;5.75;;;23.80;57.80;;;;;;5064805;28;20433;-92
2021/08/01 05:03:46;;;;;;;7.80;5.15;;;24.20;56.60;;;;;;5039982;28;20017;-89
2021/08/01 05:06:12;;;;;;;8.43;5.10;;;24.90;54.90;;;;;;5038433;28;20078;-90
2021/08/01 05:08:39;;;;;;;7.47;5.13;;;25.60;53.10;;;;;;5057199;28;20075;-90
2021/08/01 05:11:06;;;;;;;10.38;5.70;;;;;;;;;;5069474;28;20025;-89
2021/08/01 05:13:32;;;;;;;11.70;5.75;;;26.10;51.00;;;;;;5072152;28;20036;-87
2021/08/01 05:15:58;;;;;;;13.65;5.60;;;27.50;49.60;;;;;;5073789;28;20040;-88
2021/08/01 05:18:24;;;;;;;11.93;4.60;;;;;;;;;;5070372;28;20028;-91
2021/08/01 05:20:50;;;;;;;8.80;4.82;;;28.40;48.30;;;;;;5043303;28;20021;-91
2021/08/01 05:23:16;;;;;;;12.68;4.82;;;29.60;44.20;;;;;;5060902;28;20112;-91
2021/08/01 05:25:42;;;;;;;6.30;3.97;;;29.40;44.00;;;;;;5061211;28;20024;-91
2021/08/01 05:28:08;;;;;;;7.93;4.90;;;29.10;43.90;;;;;;5069705;28;20037;-89
2021/08/01 05:30:34;;;;;;;7.97;5.05;;;28.80;43.90;;;;;;5073906;28;20032;-91
2021/08/01 05:33:05;;;;;;;10.48;4.40;;;29.00;44.70;;;;;;5049086;28;20025;-90
2021/08/01 05:35:32;;;;;;;8.75;4.78;;;29.70;43.70;;;;;;5067391;28;20013;-92
2021/08/01 05:37:57;;;;;;;6.07;4.75;;;29.90;43.30;;;;;;5063792;28;20055;-90
2021/08/01 05:40:23;;;;;;;7.38;4.25;;;30.90;42.30;;;;;;5045575;28;20033;-91
2021/08/01 05:42:49;;;;;;;15.60;5.28;;;31.40;41.00;;;;;;5059834;28;20072;-91
2021/08/01 05:45:15;;;;;;;7.47;4.10;;;31.90;39.80;;;;;;5041815;28;20032;-91
2021/08/01 05:47:41;;;;;;;11.50;4.53;;;32.70;38.80;;;;;;5063962;28;20031;-89
2021/08/01 05:50:09;;;;;;;11.10;3.90;;;33.40;38.00;;;;;;5057666;28;20021;-90
2021/08/01 05:52:36;;;;;;;5.80;3.55;;;32.50;37.80;;;;;;5061221;28;20049;-91
2021/08/01 05:55:03;;;;;;;12.88;4.20;;;31.90;38.60;;;;;;5042272;28;20029;-92
2021/08/01 05:57:29;;;;;;;;;;;32.00;39.40;;;;;;5041559;28;20029;-91
2021/08/01 05:59:55;;;;;;;4.50;3.50;;;32.50;39.30;;;;;;5060323;28;19950;-90
2021/08/01 06:02:20;;;;;;;7.80;4.33;;;32.30;38.20;;;;;;5068183;28;20315;-90
2021/08/01 06:04:46;;;;;;;8.07;2.97;;;33.10;37.60;;;;;;5079184;28;20103;-89
2021/08/01 06:07:12;;;;;;;6.57;3.60;;;34.40;36.20;;;;;;5075087;28;20024;-92
2021/08/01 06:09:39;;;;;;;5.87;3.57;;;;;;;;;;5066989;28;20040;-92
2021/08/01 06:12:10;;;;;;;7.32;3.22;;;35.10;34.20;;;;;;5045084;28;20027;-93
2021/08/01 06:14:36;;;;;;;8.75;3.47;;;35.10;34.40;;;;;;5060416;28;20051;-91
2021/08/01 06:17:02;;;;;;;11.82;3.72;;;34.40;34.20;;;;;;5044715;28;20029;-91
2021/08/01 06:19:28;;;;;;;6.47;3.85;;;34.30;35.30;;;;;;5050267;28;20024;-92
2021/08/01 06:21:54;;;;;;;6.10;3.30;;;34.80;34.60;;;;;;5058324;28;20041;-90
2021/08/01 06:24:20;;;;;;;4.77;3.20;;;34.10;34.60;;;;;;5058065;28;20048;-90
2021/08/01 06:26:46;;;;;;;5.60;3.87;;;33.30;35.40;;;;;;5062412;28;20028;-90
2021/08/01 06:29:12;;;;;;;6.97;3.43;;;32.40;36.90;;;;;;5043195;28;20021;-91
2021/08/01 06:31:38;;;;;;;3.17;2.87;;;32.30;37.70;;;;;;5057356;28;20040;-90
2021/08/01 06:34:04;;;;;;;7.23;3.57;;;32.50;37.10;;;;;;5040164;28;20028;-91
2021/08/01 06:36:30;;;;;;;11.37;4.20;;;32.90;36.30;;;;;;5059757;28;20029;-92
2021/08/01 06:38:56;;;;;;;4.97;3.33;;;33.30;36.00;;;;;;5065195;28;20036;-92
2021/08/01 06:41:21;;;;;;;8.30;3.50;;;33.50;35.70;;;;;;5070334;28;20557;-91
2021/08/01 06:43:47;;;;;;;10.43;4.13;;;32.60;35.90;;;;;;5043023;28;20025;-91
2021/08/01 06:46:13;;;;;;;10.27;3.67;;;32.00;37.30;;;;;;5069460;28;20092;-92
2021/08/01 06:48:39;;;;;;;8.83;3.80;;;31.60;37.70;;;;;;5069768;28;20025;-92
2021/08/01 06:51:06;;;;;;;5.00;3.27;;;31.30;37.90;;;;;;5050474;28;20088;-91
2021/08/01 06:53:32;;;;;;;6.82;3.80;;;31.00;38.40;;;;;;5074637;28;20032;-90
2021/08/01 06:55:58;;;;;;;6.83;3.93;;;31.30;38.90;;;;;;5075877;28;20068;-91
2021/08/01 06:58:24;;;;;;;7.60;3.60;;;32.00;38.20;;;;;;5076210;28;20019;-93
2021/08/01 07:00:52;;;;;;;8.87;4.10;;;33.50;36.90;;;;;;5065254;28;20488;-91
2021/08/01 07:03:18;;;;;;;5.57;3.10;;;34.20;35.70;;;;;;5058407;28;20059;-92
2021/08/01 07:05:45;;;;;;;5.00;3.60;;;34.50;34.90;;;;;;5039925;28;20025;-89
2021/08/01 07:08:11;;;;;;;;;;;35.40;34.30;;;;;;5041332;28;20039;-90
2021/08/01 07:10:36;;;;;;;;;;;37.30;34.70;;;;;;5060525;28;20394;-92
2021/08/01 07:13:03;;;;;;;9.05;3.60;;;39.00;33.80;;;;;;5059725;28;19913;-90
2021/08/01 07:15:30;;;;;;;7.88;3.35;;;38.10;30.00;;;;;;5058566;28;20036;-91
2021/08/01 07:17:56;;;;;;;;;;;37.80;30.80;;;;;;5058844;28;20032;-91
2021/08/01 07:20:23;;;;;;;9.02;4.82;;;38.30;32.00;;;;;;5060819;28;19912;-90
2021/08/01 07:22:50;;;;;;;7.63;3.72;;;38.50;30.30;;;;;;5036865;28;20092;-90
2021/08/01 07:25:16;;;;;;;9.57;3.30;;;38.20;30.40;;;;;;5050384;28;20028;-91
2021/08/01 07:27:42;;;;;;;7.32;3.30;;;36.80;30.90;;;;;;5056527;28;20036;-92
2021/08/01 07:30:08;;;;;;;9.43;3.75;;;36.00;31.40;;;;;;5044217;28;20029;-89
2021/08/01 07:32:34;;;;;;;4.90;3.42;;;35.00;32.60;;;;;;5048332;28;20035;-93
2021/08/01 07:35:00;;;;;;;6.80;3.87;;;34.80;33.00;;;;;;5075988;28;20029;-90
2021/08/01 07:37:26;;;;;;;6.47;3.63;;;33.40;34.20;;;;;;5063730;28;20029;-93
2021/08/01 07:39:52;;;;;;;6.83;3.90;;;32.70;35.00;;;;;;5060235;28;20416;-91
2021/08/01 07:42:18;;;;;;;10.77;3.90;;;31.70;36.50;;;;;;5058207;28;20037;-90
2021/08/01 07:44:50;;;;;;;8.90;4.53;;;30.90;37.50;;;;;;5041107;28;20074;-92
2021/08/01 07:47:22;;;;;;;8.75;3.90;;;30.40;38.70;;;;;;5059538;28;20024;-91
2021/08/01 07:49:49;;;;;;;7.25;4.70;;;30.20;39.30;;;;;;5039641;28;20017;-91
2021/08/01 07:52:15;;;;;;;;;;;30.00;40.10;;;;;;5059162;28;20047;-89
2021/08/01 07:54:42;;;;;;;6.45;4.07;;;30.00;39.40;;;;;;5059854;28;19918;-93
2021/08/01 07:57:27;;;;;;;6.03;4.30;;;29.90;40.40;;;;;;5067094;28;20070;-90
2021/08/01 07:59:54;;;;;;;9.90;4.22;;;29.20;41.30;;;;;;5052071;28;20021;-89
2021/08/01 08:02:20;;;;;;;13.15;4.53;;;28.80;42.50;;;;;;5051293;28;20029;-90
2021/08/01 08:04:47;;;;;;;6.87;4.07;;;28.70;43.10;;;;;;5053794;28;20029;-89
2021/08/01 08:07:13;;;;;;;;;;;28.60;43.10;;;;;;5044660;28;20017;-92
2021/08/01 08:09:39;;;;;;;10.03;4.13;;;28.30;42.80;;;;;;5058493;28;20464;-93
2021/08/01 08:12:06;;;;;;;7.07;4.20;;;28.10;43.70;;;;;;5027327;28;20060;-92
2021/08/01 08:14:32;;;;;;;8.00;4.85;;;27.90;44.20;;;;;;5038737;28;20158;-91
2021/08/01 08:16:59;;;;;;;7.15;4.22;;;27.80;44.70;;;;;;5039567;28;20044;-90
2021/08/01 08:19:25;;;;;;;10.23;5.55;;;27.90;45.00;;;;;;5058468;28;20078;-92
2021/08/01 08:21:51;;;;;;;6.05;4.20;;;28.10;44.90;;;;;;5016074;28;20593;-90
2021/08/01 08:24:20;;;;;;;6.63;4.22;;;28.20;44.10;;;;;;4995801;28;20034;-92
2021/08/01 08:27:09;;;;;;;12.85;4.68;;;28.10;44.70;;;;;;4982818;28;20034;-91
2021/08/01 08:29:35;;;;;;;10.80;4.90;;;28.10;44.90;;;;;;4999944;28;20023;-90
2021/08/01 08:32:01;;;;;;;18.13;5.13;;;28.00;45.00;;;;;;5016827;28;20049;-90
2021/08/01 08:34:27;;;;;;;12.15;5.10;;;27.80;45.10;;;;;;4991238;28;20518;-92
2021/08/01 08:36:55;;;;;;;7.35;4.70;;;27.60;45.60;;;;;;5015828;28;20034;-90
2021/08/01 08:39:22;;;;;;;9.75;5.50;;;27.70;45.90;;;;;;4996423;28;20175;-91
2021/08/01 08:41:49;;;;;;;11.80;4.68;;;27.80;45.90;;;;;;4991804;28;20060;-91
2021/08/01 08:44:16;;;;;;;6.07;4.60;;;27.70;46.10;;;;;;4995855;28;20388;-91
2021/08/01 08:46:42;;;;;;;8.45;4.40;;;27.60;45.90;;;;;;4994829;28;20100;-91
2021/08/01 08:49:10;;;;;;;8.10;5.18;;;27.60;46.30;;;;;;5009302;28;20030;-91
2021/08/01 08:51:41;;;;;;;9.95;4.25;;;27.30;46.60;;;;;;4998337;28;20034;-89
2021/08/01 08:54:13;;;;;;;8.27;4.88;;;27.10;47.30;;;;;;4983036;28;20018;-93
2021/08/01 08:56:40;;;;;;;11.07;4.80;;;26.90;48.20;;;;;;5015049;28;20026;-92
2021/08/01 08:59:08;;;;;;;9.45;5.53;;;27.00;48.20;;;;;;5010084;28;20041;-91
2021/08/01 09:01:37;;;;;;;9.10;5.32;;;26.90;48.20;;;;;;5061603;28;20036;-91
2021/08/01 09:04:04;;;;;;;6.47;4.75;;;26.80;48.60;;;;;;5057949;28;20021;-91
2021/08/01 09:06:30;;;;;;;8.77;4.40;;;26.70;48.40;;;;;;5064720;28;20029;-89
2021/08/01 09:08:58;;;;;;;6.13;4.35;;;26.80;48.40;;;;;;5049912;28;20036;-90
2021/08/01 09:11:25;;;;;;;15.68;6.38;;;27.00;47.70;;;;;;5059814;28;20025;-90
2021/08/01 09:13:53;;;;;;;8.17;4.23;;;27.00;48.20;;;;;;5057253;28;20048;-91
2021/08/01 09:16:21;;;;;;;5.00;4.10;;;26.80;47.40;;;;;;5039875;28;20044;-90
2021/08/01 09:18:48;;;;;;;5.38;4.10;;;26.70;48.30;;;;;;5040710;28;20542;-91
2021/08/01 09:21:34;;;;;;;;;;;26.70;48.40;;;;;;5064604;28;20090;-91
2021/08/01 09:24:00;;;;;;;9.35;5.57;;;26.60;48.30;;;;;;5025771;28;19904;-91
2021/08/01 09:26:46;;;;;;;9.27;4.95;;;26.50;48.90;;;;;;5042270;28;20124;-91
2021/08/01 09:29:12;;;;;;;5.28;4.07;;;26.50;48.80;;;;;;5059495;28;20021;-89
2021/08/01 09:31:38;;;;;;;7.10;5.05;;;26.50;48.60;;;;;;5071817;28;20017;-91
2021/08/01 09:34:28;;;;;;;10.25;4.57;;;26.20;49.40;;;;;;5050148;28;20108;-90
2021/08/01 09:36:59;;;;;;;11.40;4.70;;;26.20;49.30;;;;;;5068025;28;20032;-90
2021/08/01 09:39:25;;;;;;;9.30;5.30;;;26.20;49.60;;;;;;5057068;28;20013;-92
2021/08/01 09:42:00;;;;;;;9.02;5.35;;;26.10;50.10;;;;;;5069340;28;20040;-90
2021/08/01 09:44:26;;;;;;;8.05;4.85;;;26.00;50.30;;;;;;5040382;28;20382;-92
2021/08/01 09:46:55;;;;;;;14.55;5.50;;;26.10;50.30;;;;;;5056371;28;20436;-90
2021/08/01 09:49:31;;;;;;;9.68;4.93;;;26.20;50.40;;;;;;5058260;28;20023;-92
2021/08/01 09:52:03;;;;;;;11.97;5.40;;;26.20;50.40;;;;;;5063762;28;20047;-91
2021/08/01 09:54:51;;;;;;;7.25;4.65;;;26.50;50.50;;;;;;5061063;28;20635;-92
2021/08/01 09:57:19;;;;;;;8.93;4.75;;;26.60;49.80;;;;;;5057372;28;20493;-91
2021/08/01 09:59:48;;;;;;;9.15;5.80;;;26.60;49.70;;;;;;5048739;28;20025;-92
2021/08/01 10:02:15;;;;;;;9.30;5.35;;;26.60;49.40;;;;;;5061380;28;20428;-92
2021/08/01 10:04:41;;;;;;;7.55;4.88;;;26.50;49.70;;;;;;5059081;28;20021;-90
2021/08/01 10:07:18;;;;;;;7.68;5.28;;;26.50;50.20;;;;;;5041655;28;20397;-92
2021/08/01 10:09:48;;;;;;;11.15;5.60;;;26.40;50.70;;;;;;5059213;28;20584;-92
2021/08/01 10:12:14;;;;;;;9.65;5.28;;;26.40;51.20;;;;;;5060301;28;20067;-91
2021/08/01 10:14:42;;;;;;;8.70;6.18;;;26.40;51.90;;;;;;5039165;28;20418;-88
2021/08/01 10:17:08;;;;;;;7.10;5.88;;;26.30;52.60;;;;;;5059963;28;20525;-92
2021/08/01 10:19:38;;;;;;;10.23;5.55;;;26.30;52.90;;;;;;5044239;28;20034;-93
2021/08/01 10:22:05;;;;;;;11.63;5.95;;;26.10;53.60;;;;;;5061790;28;20052;-92
2021/08/01 10:24:38;;;;;;;9.65;5.97;;;25.90;54.50;;;;;;5064392;28;20077;-91
2021/08/01 10:27:06;;;;;;;14.90;6.25;;;25.90;55.70;;;;;;5041094;28;20087;-92
2021/08/01 10:29:52;;;;;;;7.75;6.22;;;25.70;57.20;;;;;;5050558;28;20024;-91
2021/08/01 10:32:20;;;;;;;14.40;8.45;;;25.50;57.40;;;;;;5061251;28;20028;-91
2021/08/01 10:34:51;;;;;;;11.00;7.32;;;25.50;58.70;;;;;;5070801;28;20040;-91
2021/08/01 10:37:26;;;;;;;13.98;7.20;;;25.50;59.00;;;;;;5058942;28;20021;-91
2021/08/01 10:39:54;;;;;;;8.07;7.07;;;25.60;58.70;;;;;;5041872;28;20108;-91
2021/08/01 10:42:23;;;;;;;;;;;25.30;59.70;;;;;;5063110;28;20033;-92
2021/08/01 10:44:49;;;;;;;12.25;6.75;;;25.10;58.80;;;;;;5052892;28;19912;-89
2021/08/01 10:47:16;;;;;;;8.25;6.85;;;25.10;60.80;;;;;;5069389;28;20080;-91
2021/08/01 10:49:44;;;;;;;9.32;6.80;;;25.00;62.00;;;;;;5061881;28;20078;-91
2021/08/01 10:52:12;;;;;;;8.52;7.60;;;25.00;61.90;;;;;;5068276;28;20032;-90
2021/08/01 10:55:01;;;;;;;11.40;8.05;;;25.10;62.70;;;;;;5072575;28;20024;-90
2021/08/01 10:57:29;;;;;;;8.20;7.35;;;25.10;62.60;;;;;;5056569;28;20033;-93
2021/08/01 10:59:58;;;;;;;8.80;7.35;;;25.00;64.30;;;;;;5065462;28;20031;-92
2021/08/01 11:02:26;;;;;;;8.35;7.07;;;24.90;64.10;;;;;;5062176;28;20128;-92
2021/08/01 11:04:52;;;;;;;9.30;7.82;;;24.80;64.00;;;;;;5061730;28;20092;-90
2021/08/01 11:07:27;;;;;;;9.85;8.07;;;24.60;64.50;;;;;;5063330;28;20017;-89
2021/08/01 11:10:13;;;;;;;11.45;8.00;;;24.30;66.30;;;;;;5067039;28;20024;-91
2021/08/01 11:12:44;;;;;;;10.73;8.03;;;24.10;66.50;;;;;;5046225;28;20041;-91
2021/08/01 11:15:11;;;;;;;11.68;8.35;;;24.10;67.40;;;;;;5040851;28;20056;-91
2021/08/01 11:17:46;;;;;;;8.25;7.35;;;24.00;68.70;;;;;;5041337;28;20029;-93
2021/08/01 11:20:26;;;;;;;11.80;8.32;;;24.00;68.10;;;;;;5058411;28;20060;-92
2021/08/01 11:23:01;;;;;;;12.75;7.55;;;24.10;68.30;;;;;;5037043;28;20033;-92
2021/08/01 11:25:32;;;;;;;11.80;7.13;;;24.00;67.60;;;;;;5057388;28;20162;-91
2021/08/01 11:28:10;;;;;;;11.18;7.93;;;23.90;68.20;;;;;;5042501;28;20010;-92
2021/08/01 11:30:51;;;;;;;11.40;8.48;;;23.90;68.10;;;;;;5058408;28;20046;-92
2021/08/01 11:33:42;;;;;;;13.38;8.85;;;23.80;68.20;;;;;;5059316;28;20036;-91
2021/08/01 11:36:15;;;;;;;11.80;8.45;;;23.80;68.10;;;;;;5062517;28;20052;-89
2021/08/01 11:38:53;;;;;;;14.20;8.98;;;23.80;68.60;;;;;;5062360;28;20021;-89
2021/08/01 11:41:29;;;;;;;16.83;8.88;;;23.90;68.60;;;;;;5068619;28;20040;-90
2021/08/01 11:44:25;;;;;;;14.95;9.18;;;23.80;69.00;;;;;;5059204;28;20080;-91
2021/08/01 11:47:04;;;;;;;13.88;9.13;;;23.70;68.90;;;;;;5056592;28;20041;-90
2021/08/01 11:49:36;;;;;;;14.80;8.85;;;;;;;;;;5058559;28;20025;-89
2021/08/01 11:52:03;;;;;;;15.07;9.75;;;;;;;;;;5059426;28;20406;-90
2021/08/01 11:54:29;;;;;;;;;;;;;;;;;;5040343;28;20032;-92
2021/08/01 11:57:03;;;;;;;14.23;9.52;;;23.50;71.40;;;;;;5035900;28;19904;-90
2021/08/01 11:59:29;;;;;;;14.40;10.40;;;23.30;73.40;;;;;;5054907;28;20056;-90
2021/08/01 12:01:57;;;;;;;13.40;8.95;;;23.40;73.10;;;;;;5056249;28;20087;-91
2021/08/01 12:04:23;;;;;;;11.82;9.50;;;23.50;72.80;;;;;;5060595;28;20116;-88
2021/08/01 12:06:52;;;;;;;16.00;10.40;;;23.70;72.40;;;;;;5050301;28;20032;-92
2021/08/01 12:09:20;;;;;;;13.52;9.10;;;23.80;72.00;;;;;;5051821;28;20098;-90
2021/08/01 12:11:54;;;;;;;14.02;9.45;;;24.20;70.80;;;;;;5056538;28;20024;-92
2021/08/01 12:14:37;;;;;;;12.73;9.57;;;24.30;69.80;;;;;;5056520;28;20037;-92
2021/08/01 12:17:04;;;;;;;15.18;9.65;;;24.60;69.60;;;;;;5061720;28;20129;-93
2021/08/01 12:19:46;;;;;;;14.40;10.02;;;24.80;68.60;;;;;;5059662;28;20099;-91
2021/08/01 12:22:17;;;;;;;17.02;10.68;;;25.10;67.80;;;;;;5056319;28;20063;-90
2021/08/01 12:24:45;;;;;;;19.10;9.65;;;25.10;67.50;;;;;;5041103;28;20414;-93
2021/08/01 12:27:12;;;;;;;12.23;8.15;;;25.00;67.00;;;;;;5039721;28;20032;-91
2021/08/01 12:29:42;;;;;;;;;;;25.00;67.30;;;;;;5056884;28;20040;-92
2021/08/01 12:32:21;;;;;;;12.80;8.48;;;24.90;67.10;;;;;;5038733;28;19912;-91
2021/08/01 12:34:49;;;;;;;9.27;8.13;;;24.60;68.30;;;;;;5057138;28;20031;-89
2021/08/01 12:37:15;;;;;;;10.70;8.00;;;24.60;69.80;;;;;;5020498;28;20034;-91
2021/08/01 12:39:49;;;;;;;10.57;9.50;;;23.70;72.90;;;;;;5024582;28;20033;-88
2021/08/01 12:42:17;;;;;;;13.25;8.93;;;23.00;76.70;;;;;;5029214;28;20068;-90
2021/08/01 12:45:00;;;;;;;13.48;10.55;;;22.70;77.90;;;;;;5024343;28;20048;-90
2021/08/01 12:47:28;;;;;;;12.55;10.88;;;22.90;79.00;;;;;;5030716;28;20565;-90
2021/08/01 12:50:03;;;;;;;11.93;10.20;;;23.30;78.10;;;;;;5020971;28;20023;-92
2021/08/01 12:52:30;;;;;;;17.40;10.40;;;23.70;76.50;;;;;;5010012;28;20121;-90
2021/08/01 12:54:57;;;;;;;13.10;10.25;;;24.00;75.40;;;;;;5004210;28;20036;-91